createdAt,value
2022-08-17T03:34:30.766Z,0
2022-08-17T03:39:32.777Z,0
2022-08-17T03:44:34.781Z,0
2022-08-17T03:49:36.522Z,0
2022-08-17T03:54:38.333Z,0
2022-08-17T03:59:41.538Z,0
2022-08-17T04:04:43.332Z,0
2022-08-17T04:09:45.213Z,0
2022-08-17T04:19:53.174Z,0
2022-08-17T04:24:59.717Z,0
2022-08-17T04:30:01.575Z,0
2022-08-17T04:35:03.510Z,0
2022-08-17T04:40:05.946Z,0
2022-08-17T04:45:08.783Z,0
2022-08-17T04:50:10.512Z,0
2022-08-17T04:55:12.236Z,0
2022-08-17T05:00:14.653Z,0
2022-08-17T05:05:18.700Z,0
2022-08-17T05:10:20.869Z,0
2022-08-17T05:15:23.539Z,0
2022-08-17T05:20:26.233Z,0
2022-08-17T05:25:37.784Z,0
2022-08-17T05:30:40.634Z,0
2022-08-17T05:35:43.713Z,0
2022-08-17T05:40:46.161Z,0
2022-08-17T05:51:03.034Z,0
2022-08-17T06:06:32.297Z,0
2022-08-17T06:11:38.395Z,0
2022-08-17T06:16:41.753Z,0.98
2022-08-17T06:21:45.386Z,0.98
2022-08-17T06:26:48.415Z,1.94
2022-08-17T06:31:50.102Z,1.94
2022-08-17T06:36:57.457Z,2.08
2022-08-17T06:47:10.498Z,1.84
2022-08-17T06:57:23.977Z,1.67
2022-08-17T07:07:34.269Z,1.67
2022-08-17T07:12:39.166Z,2.28
2022-08-17T07:28:00.201Z,1.08
2022-08-17T07:33:03.333Z,0.62
2022-08-17T07:43:24.415Z,1.31
2022-08-17T07:48:26.546Z,1.31
2022-08-17T07:53:28.829Z,1.15
2022-08-17T07:58:30.523Z,0
2022-08-17T08:03:33.043Z,0
2022-08-17T08:08:38.107Z,0.51
2022-08-17T08:13:40.817Z,0.51
2022-08-17T08:23:52.787Z,1.76
2022-08-17T08:34:06.622Z,2.31
2022-08-17T08:39:10.884Z,2.72
2022-08-17T08:54:38.555Z,3.27
2022-08-17T09:10:01.427Z,2.91
2022-08-17T09:15:13.741Z,1.13
2022-08-17T09:25:25.338Z,2.86
2022-08-17T09:30:28.332Z,2.86
2022-08-17T09:35:38.272Z,3.54
2022-08-17T09:40:43.466Z,3.54
2022-08-17T09:45:48.705Z,1.74
2022-08-17T10:16:37.623Z,3.03
2022-08-17T10:21:41.894Z,3.07
2022-08-17T10:31:54.187Z,0.39
2022-08-17T10:36:59.643Z,0.39
2022-08-17T10:42:04.909Z,6.27
2022-08-17T10:47:07.936Z,6.27
2022-08-17T11:02:31.676Z,0
2022-08-17T11:07:39.538Z,1.12
2022-08-17T11:28:15.786Z,5.77
2022-08-17T11:38:32.327Z,2.47
2022-08-17T11:59:03.088Z,2.62
2022-08-17T12:09:13.782Z,4.05
2022-08-17T12:19:28.421Z,0.99
2022-08-17T12:29:40.034Z,0.81
2022-08-17T12:34:43.045Z,1.75
2022-08-17T12:39:50.259Z,1.75
2022-08-17T12:44:52.294Z,5.03
2022-08-17T12:49:54.915Z,5.03
2022-08-17T12:54:58.367Z,5.04
2022-08-17T13:00:01.763Z,5.04
2022-08-17T13:05:05.070Z,3.74
2022-08-17T13:10:06.942Z,3.74
2022-08-17T13:20:15.035Z,4.72
2022-08-17T13:25:16.943Z,4.72
2022-08-17T13:30:21.073Z,3.93
2022-08-17T13:40:39.871Z,3.54
2022-08-17T13:56:03.971Z,1.78
2022-08-17T14:11:20.646Z,3.35
2022-08-17T14:16:22.420Z,3.35
2022-08-17T14:21:24.137Z,0
2022-08-17T14:26:25.970Z,1.9
2022-08-17T14:31:27.770Z,1.9
2022-08-17T14:36:29.495Z,1.36
2022-08-17T14:41:31.326Z,1.36
2022-08-17T14:46:33.359Z,1.09
2022-08-17T15:01:52.809Z,1.55
2022-08-17T15:06:54.573Z,3.61
2022-08-17T15:11:56.648Z,3.61
2022-08-17T15:16:58.484Z,0.67
2022-08-17T15:22:00.343Z,0.67
2022-08-17T15:27:02.077Z,1.18
2022-08-17T15:32:04.751Z,1.18
2022-08-17T15:37:06.565Z,2.2
2022-08-17T15:42:09.059Z,1.6
2022-08-17T15:47:13.931Z,1.6
2022-08-17T15:52:17.733Z,1.08
2022-08-17T15:57:23.109Z,1.08
2022-08-17T16:07:33.134Z,5.25
2022-08-17T16:12:37.194Z,1.75
2022-08-17T16:17:41.752Z,1.75
2022-08-17T16:22:45.137Z,2.14
2022-08-17T16:27:49.493Z,2.14
2022-08-17T16:32:54.250Z,1.45
2022-08-17T16:37:58.933Z,1.45
2022-08-17T16:43:00.620Z,1.75
2022-08-17T16:48:02.426Z,1.28
2022-08-17T16:53:05.059Z,1.28
2022-08-17T16:58:07.041Z,1.44
2022-08-17T17:08:20.554Z,0
2022-08-17T17:13:25.817Z,0
2022-08-17T17:18:32.191Z,0
2022-08-17T17:23:39.741Z,0
2022-08-17T17:28:43.777Z,0
2022-08-17T17:33:46.726Z,0
2022-08-17T17:38:49.717Z,0
2022-08-17T17:48:57.295Z,0.9
2022-08-17T17:54:03.028Z,0
2022-08-17T18:04:22.156Z,0
2022-08-17T18:19:43.038Z,0
2022-08-17T18:24:46.334Z,0
2022-08-17T18:29:49.331Z,0
2022-08-17T18:34:52.380Z,0
2022-08-17T18:39:58.083Z,0
2022-08-17T18:45:00.236Z,0
2022-08-17T18:55:08.585Z,0
2022-08-17T19:00:12.483Z,0
2022-08-17T19:10:25.659Z,0
2022-08-17T19:15:30.192Z,0
2022-08-17T19:20:35.260Z,0
2022-08-17T19:25:41.013Z,0
2022-08-17T19:30:44.791Z,0
2022-08-17T19:35:50.483Z,0
2022-08-17T19:41:00.813Z,0
2022-08-17T19:46:07.471Z,0
2022-08-17T19:51:13.901Z,0.69
2022-08-17T20:01:35.679Z,0
2022-08-17T20:06:40.221Z,0
2022-08-17T20:11:44.274Z,0
2022-08-17T20:16:46.714Z,0
2022-08-17T20:21:52.353Z,0
2022-08-17T20:27:00.494Z,0
2022-08-17T20:32:06.448Z,0
2022-08-17T20:37:09.785Z,0
2022-08-17T20:47:18.773Z,2.03
2022-08-17T20:57:44.953Z,2.03
2022-08-17T21:02:47.672Z,2.03
2022-08-17T21:07:53.355Z,2.03
2022-08-17T21:12:59.296Z,2.03
2022-08-17T21:18:06.295Z,2.03
2022-08-17T21:28:21.501Z,2.03
2022-08-17T21:33:25.467Z,2.03
